Terminal Aerodrome Forecast
Issued by NWS Mobile, AL

Home | Current Version | Previous Version | Text Only | Print | Product List | Glossary On
Versions: 1 2 3 4 5 6 7 8 9 10 11 12 13 14 15 16 17 18 19 20 21
000
FTUS44 KMOB 211131
TAFMOB
TAF
KMOB 211131Z 2112/2212 35007KT P6SM OVC045
     FM211400 28006KT 4SM SHRA OVC007
     FM212000 19004KT P6SM VCSH BKN007
     FM220600 33003KT 2SM BR FEW250=

USA.gov is the U.S. government's official web portal to all federal, state and local government web resources and services.